createdAt,value
2023-02-07T00:03:00.326Z,1031.3
2023-02-07T00:08:06.413Z,1031.4
2023-02-07T00:13:12.512Z,1031.4
2023-02-07T00:18:18.626Z,1031.4
2023-02-07T00:23:24.715Z,1031.3
2023-02-07T00:28:30.859Z,1031.3
2023-02-07T00:33:35.953Z,1031.2
2023-02-07T00:38:42.134Z,1031.4
2023-02-07T00:43:48.154Z,1031.3
2023-02-07T00:48:54.245Z,1031.2
2023-02-07T00:54:00.348Z,1031.1
2023-02-07T00:59:06.465Z,1031
2023-02-07T01:04:12.540Z,1030.9
2023-02-07T01:09:18.661Z,1031
2023-02-07T01:14:24.806Z,1030.9
2023-02-07T01:19:30.862Z,1030.9
2023-02-07T01:29:43.061Z,1031
2023-02-07T01:34:49.176Z,1031
2023-02-07T01:39:54.287Z,1030.9
2023-02-07T01:45:00.403Z,1030.8
2023-02-07T01:50:06.478Z,1030.8
2023-02-07T01:55:12.585Z,1030.9
2023-02-07T02:00:18.685Z,1031
2023-02-07T02:05:24.788Z,1031
2023-02-07T02:10:30.900Z,1031
2023-02-07T02:15:36.996Z,1030.8
2023-02-07T02:20:43.125Z,1030.7
2023-02-07T02:25:49.226Z,1030.8
2023-02-07T02:30:55.312Z,1030.7
2023-02-07T02:36:01.419Z,1030.6
2023-02-07T02:41:07.531Z,1030.7
2023-02-07T02:46:12.647Z,1030.8
2023-02-07T02:51:18.738Z,1030.7
2023-02-07T02:56:24.849Z,1030.7
2023-02-07T03:01:30.937Z,1030.8
2023-02-07T03:06:37.046Z,1030.8
2023-02-07T03:11:43.153Z,1030.8
2023-02-07T03:16:49.259Z,1030.8
2023-02-07T03:21:55.390Z,1030.8
2023-02-07T03:27:01.457Z,1030.9
2023-02-07T03:32:07.556Z,1030.9
2023-02-07T03:37:13.666Z,1031
2023-02-07T03:42:19.762Z,1031
2023-02-07T03:47:25.860Z,1030.8
2023-02-07T03:52:30.977Z,1030.8
2023-02-07T03:57:37.083Z,1030.7
2023-02-07T04:02:43.177Z,1030.6
2023-02-07T04:07:49.271Z,1030.6
2023-02-07T04:12:55.386Z,1030.7
2023-02-07T04:18:01.483Z,1030.8
2023-02-07T04:23:07.594Z,1030.8
2023-02-07T04:28:13.679Z,1030.9
2023-02-07T04:33:19.793Z,1030.9
2023-02-07T04:38:25.924Z,1031
2023-02-07T04:43:31.977Z,1030.9
2023-02-07T04:48:38.080Z,1030.9
2023-02-07T04:53:44.199Z,1030.8
2023-02-07T04:58:49.299Z,1030.8
2023-02-07T05:03:55.403Z,1031
2023-02-07T05:09:01.520Z,1030.9
2023-02-07T05:14:07.613Z,1031.1
2023-02-07T05:19:13.715Z,1031
2023-02-07T05:24:19.850Z,1031
2023-02-07T05:29:25.918Z,1031
2023-02-07T05:34:32.026Z,1030.9
2023-02-07T05:39:38.193Z,1031
2023-02-07T05:44:44.202Z,1031
2023-02-07T05:49:50.325Z,1031
2023-02-07T05:54:56.420Z,1031.1
2023-02-07T06:00:02.518Z,1031.1
2023-02-07T06:05:07.629Z,1031.3
2023-02-07T06:10:13.732Z,1031.1
2023-02-07T06:15:19.900Z,1031.2
2023-02-07T06:20:25.996Z,1031.2
2023-02-07T06:25:32.019Z,1031.1
2023-02-07T06:30:38.169Z,1031.2
2023-02-07T06:35:44.212Z,1031.3
2023-02-07T06:40:50.322Z,1031.2
2023-02-07T06:45:56.424Z,1031.3
2023-02-07T06:51:02.566Z,1031.3
2023-02-07T06:56:08.602Z,1031.3
2023-02-07T07:01:14.717Z,1031.3
2023-02-07T07:06:20.865Z,1031.5
2023-02-07T07:11:25.908Z,1031.4
2023-02-07T07:16:32.008Z,1031.5
2023-02-07T07:21:38.117Z,1031.5
2023-02-07T07:26:44.216Z,1031.4
2023-02-07T07:31:50.474Z,1031.5
2023-02-07T07:36:56.399Z,1031.5
2023-02-07T07:42:02.485Z,1031.4
2023-02-07T07:47:08.795Z,1031.4
2023-02-07T07:52:14.883Z,1031.5
2023-02-07T07:57:20.859Z,1031.5
2023-02-07T08:02:27.044Z,1031.5
2023-02-07T08:07:32.988Z,1031.5
2023-02-07T08:12:39.214Z,1031.6
2023-02-07T08:17:44.250Z,1031.6
2023-02-07T08:22:50.359Z,1031.7
2023-02-07T08:27:56.400Z,1031.6
2023-02-07T08:33:02.510Z,1031.7
2023-02-07T08:38:08.612Z,1031.6
2023-02-07T08:43:14.864Z,1031.6
2023-02-07T08:48:20.997Z,1031.7
2023-02-07T08:53:26.891Z,1031.8
2023-02-07T08:58:33.200Z,1031.8
2023-02-07T09:03:39.296Z,1031.7
2023-02-07T09:08:45.394Z,1031.7
2023-02-07T09:13:51.383Z,1031.8
2023-02-07T09:18:57.558Z,1031.8
2023-02-07T09:24:02.600Z,1031.7
2023-02-07T09:29:08.608Z,1031.8
2023-02-07T09:34:14.758Z,1031.7
2023-02-07T09:39:20.984Z,1031.7
2023-02-07T09:44:27.111Z,1031.6
2023-02-07T09:49:33.009Z,1031.6
2023-02-07T09:54:39.325Z,1031.5
2023-02-07T09:59:45.410Z,1031.5
2023-02-07T10:04:51.480Z,1031.5
2023-02-07T10:09:57.589Z,1031.4
2023-02-07T10:15:03.651Z,1031.4
2023-02-07T10:20:09.660Z,1031.3
2023-02-07T10:25:15.745Z,1031.4
2023-02-07T10:30:20.867Z,1031.4
2023-02-07T10:35:27.096Z,1031.5
2023-02-07T10:40:33.178Z,1031.5
2023-02-07T10:45:39.135Z,1031.6
2023-02-07T10:50:45.391Z,1031.5
2023-02-07T10:55:51.451Z,1031.5
2023-02-07T11:00:56.599Z,1031.5
2023-02-07T11:06:02.552Z,1031.5
2023-02-07T11:11:08.763Z,1031.5
2023-02-07T11:16:14.905Z,1031.4
2023-02-07T11:21:20.964Z,1031.4
2023-02-07T11:26:27.106Z,1031.4
2023-02-07T11:31:33.241Z,1031.3
2023-02-07T11:36:39.318Z,1031.3
2023-02-07T11:41:46.630Z,1031.3
2023-02-07T11:46:51.504Z,1031.2
2023-02-07T11:51:57.442Z,1031.2
2023-02-07T11:57:03.713Z,1031.2
2023-02-07T12:02:09.639Z,1031.4
2023-02-07T12:07:14.927Z,1031.5
2023-02-07T12:12:21.159Z,1031.4
2023-02-07T12:17:27.126Z,1031.3
2023-02-07T12:22:34.587Z,1031.3
2023-02-07T12:27:39.366Z,1031.3
2023-02-07T12:32:45.400Z,1031.2
2023-02-07T12:37:51.437Z,1031.2
2023-02-07T12:42:57.592Z,1031.3
2023-02-07T12:48:03.632Z,1031.3
2023-02-07T12:53:09.655Z,1031.2
2023-02-07T12:58:15.936Z,1031.2
2023-02-07T13:03:22.048Z,1031.3
2023-02-07T13:08:28.021Z,1031.3
2023-02-07T13:13:33.139Z,1031.3
2023-02-07T13:23:45.444Z,1031.3
2023-02-07T13:28:51.424Z,1031.2
2023-02-07T13:33:57.459Z,1031.2
2023-02-07T13:39:03.552Z,1031.2
2023-02-07T13:44:09.873Z,1031.1
2023-02-07T13:49:15.795Z,1031.1
2023-02-07T13:54:22.013Z,1031.1
2023-02-07T13:59:28.176Z,1031.1
2023-02-07T14:04:34.215Z,1031.1
2023-02-07T14:09:40.360Z,1031.1
2023-02-07T14:14:46.379Z,1031.1
2023-02-07T14:19:51.369Z,1031
2023-02-07T14:24:57.628Z,1030.9
2023-02-07T14:30:03.625Z,1030.8
2023-02-07T14:35:09.672Z,1030.8
2023-02-07T14:40:15.861Z,1030.7
2023-02-07T14:45:22.148Z,1030.6
2023-02-07T14:50:27.964Z,1030.5
2023-02-07T14:55:34.148Z,1030.4
2023-02-07T15:00:40.315Z,1030.4
2023-02-07T15:05:46.340Z,1030.4
2023-02-07T15:10:52.363Z,1030.3
2023-02-07T15:21:04.708Z,1030.3
2023-02-07T15:26:10.662Z,1030.3
2023-02-07T15:31:15.773Z,1030.2
2023-02-07T15:36:21.870Z,1030.4
2023-02-07T15:41:28.187Z,1030.4
2023-02-07T15:46:34.226Z,1030.4
2023-02-07T15:51:40.351Z,1030.5
2023-02-07T15:56:46.429Z,1030.6
2023-02-07T16:01:52.525Z,1030.5
2023-02-07T16:06:58.675Z,1030.6
2023-02-07T16:12:04.743Z,1030.5
2023-02-07T16:17:10.770Z,1030.7
2023-02-07T16:22:16.994Z,1030.7
2023-02-07T16:27:23.048Z,1030.6
2023-02-07T16:32:29.169Z,1030.6
2023-02-07T16:37:34.351Z,1030.7
2023-02-07T16:42:40.382Z,1030.8
2023-02-07T16:47:46.538Z,1030.7
2023-02-07T16:52:52.511Z,1030.9
2023-02-07T16:57:58.564Z,1030.9
2023-02-07T17:03:04.831Z,1030.9
2023-02-07T17:08:10.816Z,1030.9
2023-02-07T17:13:16.964Z,1031
2023-02-07T17:18:23.047Z,1031
2023-02-07T17:23:29.140Z,1031
2023-02-07T17:28:35.230Z,1031.1
2023-02-07T17:33:41.345Z,1031.1
2023-02-07T17:38:47.391Z,1031.1
2023-02-07T17:43:52.728Z,1031.1
2023-02-07T17:48:58.616Z,1031.2
2023-02-07T17:54:05.685Z,1031.2
2023-02-07T17:59:10.831Z,1031.2
2023-02-07T18:04:16.919Z,1031.2
2023-02-07T18:09:23.014Z,1031.3
2023-02-07T18:14:29.141Z,1031.3
2023-02-07T18:19:35.244Z,1031.3
2023-02-07T18:24:41.141Z,1031.4
2023-02-07T18:29:47.421Z,1031.5
2023-02-07T18:34:53.406Z,1031.6
2023-02-07T18:39:59.633Z,1031.5
2023-02-07T18:45:05.538Z,1031.6
2023-02-07T18:50:10.792Z,1031.6
2023-02-07T18:55:16.796Z,1031.6
2023-02-07T19:00:22.924Z,1031.5
2023-02-07T19:05:29.194Z,1031.5
2023-02-07T19:10:35.028Z,1031.5
2023-02-07T19:15:41.324Z,1031.5
2023-02-07T19:20:47.389Z,1031.4
2023-02-07T19:25:53.430Z,1031.4
2023-02-07T19:30:59.560Z,1031.4
2023-02-07T19:36:05.741Z,1031.4
2023-02-07T19:41:11.853Z,1031.3
2023-02-07T19:46:17.877Z,1031.4
2023-02-07T19:51:23.957Z,1031.6
2023-02-07T19:56:29.063Z,1031.5
2023-02-07T20:01:35.005Z,1031.4
2023-02-07T20:06:41.277Z,1031.4
2023-02-07T20:11:47.317Z,1031.3
2023-02-07T20:16:53.515Z,1031.3
2023-02-07T20:21:59.501Z,1031.4
2023-02-07T20:27:05.514Z,1031.4
2023-02-07T20:32:11.789Z,1031.4
2023-02-07T20:37:17.870Z,1031.3
2023-02-07T20:42:23.972Z,1031.3
2023-02-07T20:47:30.083Z,1031.4
2023-02-07T20:52:36.081Z,1031.4
2023-02-07T20:57:42.272Z,1031.4
2023-02-07T21:02:47.338Z,1031.4
2023-02-07T21:07:53.472Z,1031.5
2023-02-07T21:12:59.561Z,1031.4
2023-02-07T21:18:05.676Z,1031.3
2023-02-07T21:23:11.753Z,1031.3
2023-02-07T21:28:17.859Z,1031.4
2023-02-07T21:33:23.963Z,1031.3
2023-02-07T21:38:30.007Z,1031.4
2023-02-07T21:43:36.153Z,1031.4
2023-02-07T21:48:42.284Z,1031.3
2023-02-07T21:53:48.279Z,1031.2
2023-02-07T21:58:54.490Z,1031.2
2023-02-07T22:04:00.594Z,1031.1
2023-02-07T22:09:05.727Z,1031
2023-02-07T22:14:11.623Z,1031
2023-02-07T22:19:17.713Z,1030.9
2023-02-07T22:24:23.928Z,1030.8
2023-02-07T22:29:30.052Z,1030.8
2023-02-07T22:34:36.046Z,1030.7
2023-02-07T22:39:43.528Z,1030.8
2023-02-07T22:44:48.281Z,1030.9
2023-02-07T22:49:54.482Z,1030.8
2023-02-07T22:55:00.580Z,1030.7
2023-02-07T23:00:06.510Z,1030.8
2023-02-07T23:05:12.635Z,1030.8
2023-02-07T23:10:18.728Z,1030.8
2023-02-07T23:15:23.833Z,1030.9
2023-02-07T23:20:30.096Z,1030.8
2023-02-07T23:25:36.198Z,1030.8
2023-02-07T23:30:42.227Z,1030.8
2023-02-07T23:35:48.365Z,1030.8
2023-02-07T23:40:54.332Z,1030.8
2023-02-07T23:46:00.598Z,1030.8
2023-02-07T23:51:06.712Z,1030.8
2023-02-07T23:56:12.620Z,1030.7
